Time;durP1;ratioP1;P1;durP2;ratioP2;P2;SDS_P1;SDS_P2;PMS_P1;PMS_P2;Temp;Humidity;BMP_temperature;BMP_pressure;BME280_temperature;BME280_humidity;BME280_pressure;Samples;Min_cycle;Max_cycle;Signal;HPM_P1;HPM_P2
2023/11/29 00:01:41;;;;;;;;;;;;;;;;;;2199542;59;2042;-77
2023/11/29 00:04:11;;;;;;;;;;;;;;;;;;2196696;59;2644;-77
2023/11/29 00:06:42;;;;;;;;;;;;;;;;;;2195925;59;1699;-78
2023/11/29 00:09:12;;;;;;;;;;;;;;;;;;2195814;59;1938;-76
2023/11/29 00:11:44;;;;;;;;;;;;;;;;;;2195698;59;1718;-77
2023/11/29 00:14:14;;;;;;;;;;;;;;;;;;2197263;59;1798;-77
2023/11/29 00:16:45;;;;;;;;;;;;;;;;;;2196706;59;1744;-77
2023/11/29 00:19:16;;;;;;;;;;;;;;;;;;2196147;59;1504;-77
2023/11/29 00:21:46;;;;;;;;;;;;;;;;;;2196373;59;1738;-77
2023/11/29 00:24:17;;;;;;;;;;;;;;;;;;2195004;60;1628;-77
2023/11/29 00:26:47;;;;;;;;;;;;;;;;;;2197809;59;1685;-77
2023/11/29 00:29:21;;;;;;;;;;;;;;;;;;2195835;59;2284;-77
2023/11/29 00:31:58;;;;;;;;;;;;;;;;;;2195791;59;1755;-77
2023/11/29 00:34:31;;;;;;;;;;;;;;;;;;2194884;59;1573;-79
2023/11/29 00:37:06;;;;;;;;;;;;;;;;;;2195310;67;1620;-77
2023/11/29 00:39:37;;;;;;;;;;;;;;;;;;2195509;59;1444;-77
2023/11/29 00:42:17;;;;;;;;;;;;;;;;;;2201058;59;1901;-77
2023/11/29 00:44:47;;;;;;;;;;;;;;;;;;2195994;59;1615;-77
2023/11/29 00:47:20;;;;;;;;;;;;;;;;;;2197168;59;1575;-77
2023/11/29 00:49:53;;;;;;;;;;;;;;;;;;2196518;59;2980;-77
2023/11/29 00:52:26;;;;;;;;;;;;;;;;;;2195566;59;1910;-77
2023/11/29 00:54:59;;;;;;;;;;;;;;;;;;2195993;59;1701;-77
2023/11/29 00:57:30;;;;;;;;;;;;;;;;;;2199043;59;1829;-77
2023/11/29 01:00:05;;;;;;;;;;;;;;;;;;2199198;67;1657;-77
2023/11/29 01:02:43;;;;;;;;;;;;;;;;;;2195904;59;2313;-77
2023/11/29 01:05:14;;;;;;;;;;;;;;;;;;2197514;59;1999;-77
2023/11/29 01:07:47;;;;;;;;;;;;;;;;;;2196396;67;1791;-80
2023/11/29 01:10:20;;;;;;;;;;;;;;;;;;2198508;59;2081;-77
2023/11/29 01:12:54;;;;;;;;;;;;;;;;;;2196228;59;1592;-77
2023/11/29 01:15:27;;;;;;;;;;;;;;;;;;2196054;59;1741;-77
2023/11/29 01:17:57;;;;;;;;;;;;;;;;;;2196115;59;2028;-77
2023/11/29 01:20:28;;;;;;;;;;;;;;;;;;2198262;67;2209;-78
2023/11/29 01:23:01;;;;;;;;;;;;;;;;;;2196012;59;2131;-77
2023/11/29 01:25:36;;;;;;;;;;;;;;;;;;2196076;59;1748;-77
2023/11/29 01:28:12;;;;;;;;;;;;;;;;;;2198254;59;2035;-77
2023/11/29 01:30:46;;;;;;;;;;;;;;;;;;2196165;59;2245;-77
2023/11/29 01:33:17;;;;;;;;;;;;;;;;;;2196659;59;1586;-78
2023/11/29 01:35:49;;;;;;;;;;;;;;;;;;2195913;59;1755;-77
2023/11/29 01:38:20;;;;;;;;;;;;;;;;;;2194768;59;1648;-77
2023/11/29 01:40:51;;;;;;;;;;;;;;;;;;2198140;59;1712;-77
2023/11/29 01:43:21;;;;;;;;;;;;;;;;;;2195581;59;1563;-79
2023/11/29 01:45:58;;;;;;;;;;;;;;;;;;2196251;59;1936;-77
2023/11/29 01:48:45;;;;;;;;;;;;;;;;;;2196425;59;1934;-77
2023/11/29 01:51:16;;;;;;;;;;;;;;;;;;2196402;59;1797;-77
2023/11/29 01:53:47;;;;;;;;;;;;;;;;;;2196496;67;1962;-77
2023/11/29 01:56:19;;;;;;;;;;;;;;;;;;2195990;59;2445;-77
2023/11/29 01:58:52;;;;;;;;;;;;;;;;;;2201240;59;1909;-77
2023/11/29 02:01:23;;;;;;;;;;;;;;;;;;2195395;59;2131;-77
2023/11/29 02:03:56;;;;;;;;;;;;;;;;;;2195889;59;2281;-77
2023/11/29 02:06:30;;;;;;;;;;;;;;;;;;2198680;59;2303;-77
2023/11/29 02:09:06;;;;;;;;;;;;;;;;;;2196372;59;1967;-77
2023/11/29 02:11:44;;;;;;;;;;;;;;;;;;2195961;59;1493;-77
2023/11/29 02:14:17;;;;;;;;;;;;;;;;;;2196191;59;1663;-77
2023/11/29 02:16:48;;;;;;;;;;;;;;;;;;2196387;59;2363;-77
2023/11/29 02:19:21;;;;;;;;;;;;;;;;;;2196567;59;1624;-77
2023/11/29 02:21:52;;;;;;;;;;;;;;;;;;2196316;59;1701;-78
2023/11/29 02:24:28;;;;;;;;;;;;;;;;;;2196507;59;1900;-76
2023/11/29 02:27:04;;;;;;;;;;;;;;;;;;2203929;59;1646;-77
2023/11/29 02:29:38;;;;;;;;;;;;;;;;;;2203984;59;2186;-81
2023/11/29 02:32:12;;;;;;;;;;;;;;;;;;2196646;59;1853;-77
2023/11/29 02:34:42;;;;;;;;;;;;;;;;;;2196966;59;1720;-77
2023/11/29 02:37:12;;;;;;;;;;;;;;;;;;2196615;59;1614;-77
2023/11/29 02:39:49;;;;;;;;;;;;;;;;;;2196620;59;1955;-77
2023/11/29 02:42:28;;;;;;;;;;;;;;;;;;2196911;59;1564;-77
2023/11/29 02:45:07;;;;;;;;;;;;;;;;;;2196333;59;2369;-77
2023/11/29 02:47:43;;;;;;;;;;;;;;;;;;2196372;59;1908;-77
2023/11/29 02:50:19;;;;;;;;;;;;;;;;;;2196909;59;2040;-78
2023/11/29 02:52:55;;;;;;;;;;;;;;;;;;2196913;59;1772;-77
2023/11/29 02:55:28;;;;;;;;;;;;;;;;;;2196399;67;1541;-78
2023/11/29 02:58:04;;;;;;;;;;;;;;;;;;2196469;59;1679;-77
2023/11/29 03:00:40;;;;;;;;;;;;;;;;;;2196629;59;1631;-77
2023/11/29 03:03:10;;;;;;;;;;;;;;;;;;2197746;59;2475;-77
2023/11/29 03:05:48;;;;;;;;;;;;;;;;;;2202315;66;1205;-76
2023/11/29 03:08:24;;;;;;;;;;;;;;;;;;2197028;59;1214;-77
2023/11/29 03:11:01;;;;;;;;;;;;;;;;;;2197152;67;1981;-77
2023/11/29 03:13:32;;;;;;;;;;;;;;;;;;2198875;67;1184;-77
2023/11/29 03:16:02;;;;;;;;;;;;;;;;;;2197267;67;1025;-77
2023/11/29 03:18:44;;;;;;;;;;;;;;;;;;2196998;67;1206;-77
2023/11/29 03:21:18;;;;;;;;;;;;;;;;;;2201808;59;1220;-77
2023/11/29 03:23:51;;;;;;;;;;;;;;;;;;2197779;59;1596;-77
2023/11/29 03:26:42;;;;;;;;;;;;;;;;;;2196041;59;1637;-77
2023/11/29 03:29:13;;;;;;;;;;;;;;;;;;2198866;59;2452;-77
2023/11/29 03:31:43;;;;;;;;;;;;;;;;;;2196483;59;1362;-77
2023/11/29 03:34:17;;;;;;;;;;;;;;;;;;2197401;59;1125;-77
2023/11/29 03:36:47;;;;;;;;;;;;;;;;;;2196900;67;1471;-77
2023/11/29 03:39:26;;;;;;;;;;;;;;;;;;2199027;59;1430;-77
2023/11/29 03:41:59;;;;;;;;;;;;;;;;;;2197216;67;996;-77
2023/11/29 03:44:30;;;;;;;;;;;;;;;;;;2196486;67;1269;-77
2023/11/29 03:47:03;;;;;;;;;;;;;;;;;;2196922;67;1278;-77
2023/11/29 03:49:34;;;;;;;;;;;;;;;;;;2198405;59;2004;-76
2023/11/29 03:52:04;;;;;;;;;;;;;;;;;;2196456;67;1007;-77
2023/11/29 03:54:35;;;;;;;;;;;;;;;;;;2196006;67;1089;-77
2023/11/29 03:57:11;;;;;;;;;;;;;;;;;;2196833;59;1304;-77
2023/11/29 03:59:50;;;;;;;;;;;;;;;;;;2196043;67;996;-77
2023/11/29 04:02:23;;;;;;;;;;;;;;;;;;2196537;67;1015;-77
2023/11/29 04:05:00;;;;;;;;;;;;;;;;;;2196474;67;1171;-77
2023/11/29 04:07:31;;;;;;;;;;;;;;;;;;2196020;67;1488;-77
2023/11/29 04:10:04;;;;;;;;;;;;;;;;;;2197421;67;1989;-77
2023/11/29 04:12:35;;;;;;;;;;;;;;;;;;2197006;67;1020;-77
2023/11/29 04:15:09;;;;;;;;;;;;;;;;;;2198020;67;991;-76
2023/11/29 04:17:39;;;;;;;;;;;;;;;;;;2197031;67;1257;-77
2023/11/29 04:20:10;;;;;;;;;;;;;;;;;;2197897;59;1097;-77
2023/11/29 04:22:46;;;;;;;;;;;;;;;;;;2197377;59;1063;-78
2023/11/29 04:25:19;;;;;;;;;;;;;;;;;;2198332;67;1082;-77
2023/11/29 04:28:00;;;;;;;;;;;;;;;;;;2196637;60;1525;-77
2023/11/29 04:30:33;;;;;;;;;;;;;;;;;;2199955;67;1922;-77
2023/11/29 04:33:10;;;;;;;;;;;;;;;;;;2202814;59;1777;-77
2023/11/29 04:35:40;;;;;;;;;;;;;;;;;;2197666;59;983;-77
2023/11/29 04:38:19;;;;;;;;;;;;;;;;;;2197592;67;1323;-77
2023/11/29 04:40:49;;;;;;;;;;;;;;;;;;2198301;59;1521;-77
2023/11/29 04:43:25;;;;;;;;;;;;;;;;;;2197661;67;1072;-76
2023/11/29 04:45:56;;;;;;;;;;;;;;;;;;2197912;67;951;-77
2023/11/29 04:48:26;;;;;;;;;;;;;;;;;;2196770;67;1246;-77
2023/11/29 04:50:56;;;;;;;;;;;;;;;;;;2197500;59;1963;-77
2023/11/29 04:53:27;;;;;;;;;;;;;;;;;;2197447;67;985;-77
2023/11/29 04:55:58;;;;;;;;;;;;;;;;;;2199259;67;996;-77
2023/11/29 04:58:28;;;;;;;;;;;;;;;;;;2198255;59;2664;-77
2023/11/29 05:01:08;;;;;;;;;;;;;;;;;;2197955;67;1108;-77
2023/11/29 05:03:38;;;;;;;;;;;;;;;;;;2204401;59;2266;-77
2023/11/29 05:06:10;;;;;;;;;;;;;;;;;;2197446;67;983;-77
2023/11/29 05:08:42;;;;;;;;;;;;;;;;;;2199629;59;1942;-77
2023/11/29 05:11:13;;;;;;;;;;;;;;;;;;2199939;67;1079;-77
2023/11/29 05:13:44;;;;;;;;;;;;;;;;;;2201759;59;1802;-77
2023/11/29 05:16:15;;;;;;;;;;;;;;;;;;2200776;59;1661;-76
2023/11/29 05:18:48;;;;;;;;;;;;;;;;;;2203083;59;1685;-77
2023/11/29 05:21:18;;;;;;;;;;;;;;;;;;2202055;59;2171;-77
2023/11/29 05:23:52;;;;;;;;;;;;;;;;;;2200017;59;1396;-76
2023/11/29 05:26:23;;;;;;;;;;;;;;;;;;2207959;59;1328;-77
2023/11/29 05:28:53;;;;;;;;;;;;;;;;;;2199132;59;2194;-77
2023/11/29 05:31:29;;;;;;;;;;;;;;;;;;2199505;59;1274;-77
2023/11/29 05:34:02;;;;;;;;;;;;;;;;;;2200064;59;1391;-77
2023/11/29 05:36:38;;;;;;;;;;;;;;;;;;2199406;59;1035;-77
2023/11/29 05:39:14;;;;;;;;;;;;;;;;;;2196893;67;1353;-77
2023/11/29 05:41:44;;;;;;;;;;;;;;;;;;2196909;67;1200;-77
2023/11/29 05:44:17;;;;;;;;;;;;;;;;;;2196587;67;1242;-77
2023/11/29 05:46:47;;;;;;;;;;;;;;;;;;2196852;59;1490;-77
2023/11/29 05:49:21;;;;;;;;;;;;;;;;;;2196999;67;1953;-77
2023/11/29 05:51:54;;;;;;;;;;;;;;;;;;2197083;60;1405;-77
2023/11/29 05:54:28;;;;;;;;;;;;;;;;;;2196147;59;1103;-77
2023/11/29 05:57:00;;;;;;;;;;;;;;;;;;2196527;67;1264;-79
2023/11/29 05:59:36;;;;;;;;;;;;;;;;;;2196758;67;1032;-77
2023/11/29 06:02:09;;;;;;;;;;;;;;;;;;2197128;59;1682;-77
2023/11/29 06:04:39;;;;;;;;;;;;;;;;;;2196030;59;1065;-77
2023/11/29 06:07:09;;;;;;;;;;;;;;;;;;2198621;67;1187;-77
2023/11/29 06:09:42;;;;;;;;;;;;;;;;;;2195593;59;1969;-77
2023/11/29 06:12:13;;;;;;;;;;;;;;;;;;2196752;67;978;-77
2023/11/29 06:14:52;;;;;;;;;;;;;;;;;;2198022;59;1322;-77
2023/11/29 06:17:31;;;;;;;;;;;;;;;;;;2200299;67;1295;-77
2023/11/29 06:20:04;;;;;;;;;;;;;;;;;;2196710;59;1125;-77
2023/11/29 06:22:35;;;;;;;;;;;;;;;;;;2197379;67;1090;-77
2023/11/29 06:25:07;;;;;;;;;;;;;;;;;;2197022;67;1043;-77
2023/11/29 06:27:38;;;;;;;;;;;;;;;;;;2196712;59;1530;-77
2023/11/29 06:30:09;;;;;;;;;;;;;;;;;;2198923;59;1896;-76
2023/11/29 06:32:42;;;;;;;;;;;;;;;;;;2199857;67;1242;-77
2023/11/29 06:35:13;;;;;;;;;;;;;;;;;;2200780;67;2012;-77
2023/11/29 06:37:47;;;;;;;;;;;;;;;;;;2198044;67;1217;-77
2023/11/29 06:40:26;;;;;;;;;;;;;;;;;;2196284;59;1447;-76
2023/11/29 06:43:02;;;;;;;;;;;;;;;;;;2197242;67;1315;-77
2023/11/29 06:45:35;;;;;;;;;;;;;;;;;;2196339;67;1436;-77
2023/11/29 06:48:06;;;;;;;;;;;;;;;;;;2197288;67;1270;-77
2023/11/29 06:50:36;;;;;;;;;;;;;;;;;;2196100;67;1899;-77
2023/11/29 06:53:07;;;;;;;;;;;;;;;;;;2198786;59;1743;-77
2023/11/29 06:55:38;;;;;;;;;;;;;;;;;;2197902;67;1095;-77
2023/11/29 06:58:09;;;;;;;;;;;;;;;;;;2196608;59;1244;-76
2023/11/29 07:00:45;;;;;;;;;;;;;;;;;;2196503;59;1133;-78
2023/11/29 07:03:19;;;;;;;;;;;;;;;;;;2196723;59;2405;-77
2023/11/29 07:05:51;;;;;;;;;;;;;;;;;;2196142;60;1114;-77
2023/11/29 07:08:25;;;;;;;;;;;;;;;;;;2199085;59;1240;-77
2023/11/29 07:10:58;;;;;;;;;;;;;;;;;;2196062;60;1977;-77
2023/11/29 07:13:34;;;;;;;;;;;;;;;;;;2196583;59;1020;-79
2023/11/29 07:16:04;;;;;;;;;;;;;;;;;;2195663;67;1065;-77
2023/11/29 07:18:38;;;;;;;;;;;;;;;;;;2196014;59;1315;-77
2023/11/29 07:21:14;;;;;;;;;;;;;;;;;;2196603;67;1098;-77
2023/11/29 07:23:44;;;;;;;;;;;;;;;;;;2196279;59;1289;-77
2023/11/29 07:26:15;;;;;;;;;;;;;;;;;;2196446;59;1567;-77
2023/11/29 07:28:47;;;;;;;;;;;;;;;;;;2195401;59;2445;-77
2023/11/29 07:31:20;;;;;;;;;;;;;;;;;;2199387;59;1549;-80
2023/11/29 07:33:51;;;;;;;;;;;;;;;;;;2199363;59;1759;-77
2023/11/29 07:36:21;;;;;;;;;;;;;;;;;;2195679;67;1066;-77
2023/11/29 07:38:52;;;;;;;;;;;;;;;;;;2196256;59;1309;-77
2023/11/29 07:41:25;;;;;;;;;;;;;;;;;;2195836;67;1254;-77
2023/11/29 07:43:58;;;;;;;;;;;;;;;;;;2195540;67;1153;-77
2023/11/29 07:46:29;;;;;;;;;;;;;;;;;;2195790;67;1155;-77
2023/11/29 07:48:59;;;;;;;;;;;;;;;;;;2196107;67;1988;-77
2023/11/29 07:51:32;;;;;;;;;;;;;;;;;;2195965;67;1128;-77
2023/11/29 07:54:06;;;;;;;;;;;;;;;;;;2196560;59;1410;-77
2023/11/29 07:56:36;;;;;;;;;;;;;;;;;;2195949;59;1567;-77
2023/11/29 07:59:07;;;;;;;;;;;;;;;;;;2195644;67;1288;-77
2023/11/29 08:01:38;;;;;;;;;;;;;;;;;;2196210;67;963;-77
2023/11/29 08:04:15;;;;;;;;;;;;;;;;;;2197016;67;945;-77
2023/11/29 08:06:54;;;;;;;;;;;;;;;;;;2198080;67;1260;-76
2023/11/29 08:09:28;;;;;;;;;;;;;;;;;;2196216;59;1914;-77
2023/11/29 08:11:58;;;;;;;;;;;;;;;;;;2197336;59;1561;-77
2023/11/29 08:14:35;;;;;;;;;;;;;;;;;;2195886;59;1297;-77
2023/11/29 08:17:08;;;;;;;;;;;;;;;;;;2195998;59;2383;-77
2023/11/29 08:19:41;;;;;;;;;;;;;;;;;;2195889;59;1942;-77
2023/11/29 08:22:15;;;;;;;;;;;;;;;;;;2196186;59;1368;-77
2023/11/29 08:24:45;;;;;;;;;;;;;;;;;;2195878;67;1196;-77
2023/11/29 08:27:19;;;;;;;;;;;;;;;;;;2195964;67;1205;-77
2023/11/29 08:29:52;;;;;;;;;;;;;;;;;;2198435;59;2351;-77
2023/11/29 08:32:27;;;;;;;;;;;;;;;;;;2196880;59;1368;-77
2023/11/29 08:35:04;;;;;;;;;;;;;;;;;;2195714;59;1398;-77
2023/11/29 08:37:43;;;;;;;;;;;;;;;;;;2196291;59;1356;-77
2023/11/29 08:40:17;;;;;;;;;;;;;;;;;;2196537;67;990;-77
2023/11/29 08:42:50;;;;;;;;;;;;;;;;;;2196687;59;1071;-77
2023/11/29 08:45:22;;;;;;;;;;;;;;;;;;2199488;60;1502;-77
2023/11/29 08:47:55;;;;;;;;;;;;;;;;;;2196189;67;1235;-77
2023/11/29 08:50:26;;;;;;;;;;;;;;;;;;2196534;67;1988;-77
2023/11/29 08:52:59;;;;;;;;;;;;;;;;;;2199432;67;1143;-77
2023/11/29 08:55:29;;;;;;;;;;;;;;;;;;2196159;67;1558;-81
2023/11/29 08:58:00;;;;;;;;;;;;;;;;;;2196170;59;1233;-77
2023/11/29 09:00:37;;;;;;;;;;;;;;;;;;2196627;59;1005;-77
2023/11/29 09:03:12;;;;;;;;;;;;;;;;;;2196619;59;2381;-77
2023/11/29 09:05:43;;;;;;;;;;;;;;;;;;2197236;67;1091;-77
2023/11/29 09:08:13;;;;;;;;;;;;;;;;;;2196559;67;1187;-80
2023/11/29 09:10:52;;;;;;;;;;;;;;;;;;2196586;67;1926;-77
2023/11/29 09:13:26;;;;;;;;;;;;;;;;;;2196512;59;1048;-77
2023/11/29 09:15:56;;;;;;;;;;;;;;;;;;2195973;59;1376;-77
2023/11/29 09:18:29;;;;;;;;;;;;;;;;;;2198567;67;1157;-77
2023/11/29 09:21:03;;;;;;;;;;;;;;;;;;2198268;59;1221;-77
2023/11/29 09:23:39;;;;;;;;;;;;;;;;;;2196209;59;1664;-77
2023/11/29 09:26:12;;;;;;;;;;;;;;;;;;2197250;67;1022;-77
2023/11/29 09:28:48;;;;;;;;;;;;;;;;;;2196201;59;3961;-78
2023/11/29 09:31:26;;;;;;;;;;;;;;;;;;2197560;59;1452;-77
2023/11/29 09:34:01;;;;;;;;;;;;;;;;;;2196009;59;1380;-77
2023/11/29 09:36:32;;;;;;;;;;;;;;;;;;2198405;59;1549;-77
2023/11/29 09:39:12;;;;;;;;;;;;;;;;;;2196832;59;1260;-77
2023/11/29 09:41:45;;;;;;;;;;;;;;;;;;2197741;67;1213;-77
2023/11/29 09:44:16;;;;;;;;;;;;;;;;;;2193053;67;1586;-77
2023/11/29 09:46:46;;;;;;;;;;;;;;;;;;2196689;67;1245;-77
2023/11/29 09:49:27;;;;;;;;;;;;;;;;;;2195311;67;1993;-78
2023/11/29 09:51:58;;;;;;;;;;;;;;;;;;2196137;67;1289;-77
2023/11/29 09:54:31;;;;;;;;;;;;;;;;;;2196254;59;1177;-78
2023/11/29 09:57:01;;;;;;;;;;;;;;;;;;2196360;59;1561;-77
2023/11/29 09:59:37;;;;;;;;;;;;;;;;;;2196192;59;1008;-77
2023/11/29 10:02:13;;;;;;;;;;;;;;;;;;2196467;59;2385;-77
2023/11/29 10:04:45;;;;;;;;;;;;;;;;;;2196805;59;1490;-77
2023/11/29 10:07:23;;;;;;;;;;;;;;;;;;2196126;59;1273;-77
2023/11/29 10:10:06;;;;;;;;;;;;;;;;;;2196304;67;1898;-77
2023/11/29 10:12:45;;;;;;;;;;;;;;;;;;2195796;59;1074;-79
2023/11/29 10:15:16;;;;;;;;;;;;;;;;;;2198329;59;1227;-77
2023/11/29 10:17:50;;;;;;;;;;;;;;;;;;2208477;59;1258;-77
2023/11/29 10:20:28;;;;;;;;;;;;;;;;;;2204304;67;2282;-78
2023/11/29 10:23:02;;;;;;;;;;;;;;;;;;2224951;59;2141;-77
2023/11/29 10:25:35;;;;;;;;;;;;;;;;;;2219541;66;1125;-77
2023/11/29 10:28:06;;;;;;;;;;;;;;;;;;2206887;66;1356;-78
2023/11/29 10:30:41;;;;;;;;;;;;;;;;;;2215792;59;1602;-76
2023/11/29 10:33:12;;;;;;;;;;;;;;;;;;2218738;59;1297;-77
2023/11/29 10:35:43;;;;;;;;;;;;;;;;;;2215251;66;1451;-77
2023/11/29 10:38:18;;;;;;;;;;;;;;;;;;2216033;59;1269;-77
2023/11/29 10:40:49;;;;;;;;;;;;;;;;;;2216196;59;1916;-77
2023/11/29 10:43:21;;;;;;;;;;;;;;;;;;2212318;66;1130;-77
2023/11/29 10:45:54;;;;;;;;;;;;;;;;;;2215101;66;1431;-77
2023/11/29 10:48:26;;;;;;;;;;;;;;;;;;2216760;66;1147;-77
2023/11/29 10:51:02;;;;;;;;;;;;;;;;;;2216612;66;994;-77
2023/11/29 10:53:34;;;;;;;;;;;;;;;;;;2217307;66;1031;-80
2023/11/29 10:56:10;;;;;;;;;;;;;;;;;;2216626;59;1289;-77
2023/11/29 10:58:46;;;;;;;;;;;;;;;;;;2216809;59;2385;-77
2023/11/29 11:01:32;;;;;;;;;;;;;;;;;;2216768;66;2010;-78
2023/11/29 11:04:08;;;;;;;;;;;;;;;;;;2216842;59;2338;-77
2023/11/29 11:06:39;;;;;;;;;;;;;;;;;;2216233;66;1099;-77
2023/11/29 11:09:30;;;;;;;;;;;;;;;;;;2216262;66;1354;-77
2023/11/29 11:12:00;;;;;;;;;;;;;;;;;;2215529;59;1352;-77
2023/11/29 11:14:45;;;;;;;;;;;;;;;;;;2215885;59;1219;-77
2023/11/29 11:17:20;;;;;;;;;;;;;;;;;;2216136;66;1228;-77
2023/11/29 11:19:54;;;;;;;;;;;;;;;;;;2206697;59;1941;-77
2023/11/29 11:22:26;;;;;;;;;;;;;;;;;;2215055;66;1018;-77
2023/11/29 11:25:16;;;;;;;;;;;;;;;;;;2215015;59;1182;-77
2023/11/29 11:27:50;;;;;;;;;;;;;;;;;;2211079;60;1356;-77
2023/11/29 11:30:25;;;;;;;;;;;;;;;;;;2215210;59;2293;-77
2023/11/29 11:32:58;;;;;;;;;;;;;;;;;;2217845;58;1235;-78
2023/11/29 11:35:33;;;;;;;;;;;;;;;;;;2212656;67;1268;-77
2023/11/29 11:38:08;;;;;;;;;;;;;;;;;;2214796;59;1596;-77
2023/11/29 11:40:43;;;;;;;;;;;;;;;;;;2212055;59;1935;-77
2023/11/29 11:43:18;;;;;;;;;;;;;;;;;;2215366;59;1215;-78
2023/11/29 11:45:54;;;;;;;;;;;;;;;;;;2214689;59;1256;-77
2023/11/29 11:48:25;;;;;;;;;;;;;;;;;;2212834;67;1159;-77
2023/11/29 11:50:55;;;;;;;;;;;;;;;;;;2213454;66;984;-78
2023/11/29 11:53:26;;;;;;;;;;;;;;;;;;2201590;67;1180;-77
2023/11/29 11:55:59;;;;;;;;;;;;;;;;;;2216030;59;1081;-77
2023/11/29 11:58:30;;;;;;;;;;;;;;;;;;2214438;59;1174;-77
2023/11/29 12:01:06;;;;;;;;;;;;;;;;;;2204566;66;1937;-78
2023/11/29 12:03:38;;;;;;;;;;;;;;;;;;2214382;59;2236;-77
2023/11/29 12:06:08;;;;;;;;;;;;;;;;;;2215338;66;1212;-77
2023/11/29 12:08:47;;;;;;;;;;;;;;;;;;2215581;59;1247;-77
2023/11/29 12:11:26;;;;;;;;;;;;;;;;;;2215203;59;1272;-76
2023/11/29 12:13:57;;;;;;;;;;;;;;;;;;2215635;59;1068;-78
2023/11/29 12:16:30;;;;;;;;;;;;;;;;;;2214701;59;1496;-77
2023/11/29 12:19:01;;;;;;;;;;;;;;;;;;2207221;67;2059;-77
2023/11/29 12:21:35;;;;;;;;;;;;;;;;;;2215714;67;945;-77
2023/11/29 12:24:13;;;;;;;;;;;;;;;;;;2215492;59;1052;-77
2023/11/29 12:26:46;;;;;;;;;;;;;;;;;;2214449;66;1279;-77
2023/11/29 12:29:22;;;;;;;;;;;;;;;;;;2214408;66;1207;-77
2023/11/29 12:31:58;;;;;;;;;;;;;;;;;;2205090;59;1539;-77
2023/11/29 12:34:29;;;;;;;;;;;;;;;;;;2214479;66;1073;-77
2023/11/29 12:37:04;;;;;;;;;;;;;;;;;;2199377;67;1131;-78
2023/11/29 12:39:37;;;;;;;;;;;;;;;;;;2214637;59;1960;-77
2023/11/29 12:42:09;;;;;;;;;;;;;;;;;;2216061;59;1318;-78
2023/11/29 12:44:40;;;;;;;;;;;;;;;;;;2216068;59;1429;-77
2023/11/29 12:47:10;;;;;;;;;;;;;;;;;;2216739;59;1154;-77
2023/11/29 12:49:41;;;;;;;;;;;;;;;;;;2210136;62;1286;-78
2023/11/29 12:52:17;;;;;;;;;;;;;;;;;;2216791;66;1299;-77
2023/11/29 12:54:47;;;;;;;;;;;;;;;;;;2214653;60;1207;-78
2023/11/29 12:57:20;;;;;;;;;;;;;;;;;;2199986;59;1345;-78
2023/11/29 12:59:57;;;;;;;;;;;;;;;;;;2214768;59;1974;-77
2023/11/29 13:02:27;;;;;;;;;;;;;;;;;;2200577;67;1139;-77
2023/11/29 13:05:01;;;;;;;;;;;;;;;;;;2218185;66;1673;-78
2023/11/29 13:07:34;;;;;;;;;;;;;;;;;;2215372;59;1144;-77
2023/11/29 13:10:08;;;;;;;;;;;;;;;;;;2215287;66;1132;-77
2023/11/29 13:12:39;;;;;;;;;;;;;;;;;;2214987;67;1099;-77
2023/11/29 13:15:09;;;;;;;;;;;;;;;;;;2215423;67;1319;-77
2023/11/29 13:17:40;;;;;;;;;;;;;;;;;;2215853;59;1445;-77
2023/11/29 13:20:15;;;;;;;;;;;;;;;;;;2199427;59;1932;-77
2023/11/29 13:22:46;;;;;;;;;;;;;;;;;;2213862;66;1143;-78
2023/11/29 13:25:19;;;;;;;;;;;;;;;;;;2216048;59;1248;-77
2023/11/29 13:27:52;;;;;;;;;;;;;;;;;;2215506;59;1435;-77
2023/11/29 13:30:28;;;;;;;;;;;;;;;;;;2214968;59;2285;-77
2023/11/29 13:33:08;;;;;;;;;;;;;;;;;;2215392;59;1108;-78
2023/11/29 13:35:49;;;;;;;;;;;;;;;;;;2215188;66;1398;-78
2023/11/29 13:38:29;;;;;;;;;;;;;;;;;;2216028;66;1385;-77
2023/11/29 13:41:02;;;;;;;;;;;;;;;;;;2215080;59;1967;-77
2023/11/29 13:43:35;;;;;;;;;;;;;;;;;;2215886;59;1475;-77
2023/11/29 13:46:08;;;;;;;;;;;;;;;;;;2214432;59;1486;-77
2023/11/29 13:48:39;;;;;;;;;;;;;;;;;;2215654;59;1257;-77
2023/11/29 13:51:15;;;;;;;;;;;;;;;;;;2212210;67;1098;-77
2023/11/29 13:53:51;;;;;;;;;;;;;;;;;;2213967;66;980;-77
2023/11/29 13:56:24;;;;;;;;;;;;;;;;;;2204072;59;1213;-79
2023/11/29 13:59:00;;;;;;;;;;;;;;;;;;2214914;66;1987;-77
2023/11/29 14:01:32;;;;;;;;;;;;;;;;;;2200885;59;1895;-77
2023/11/29 14:04:02;;;;;;;;;;;;;;;;;;2215201;66;1279;-77
2023/11/29 14:06:41;;;;;;;;;;;;;;;;;;2215561;60;1266;-77
2023/11/29 14:09:14;;;;;;;;;;;;;;;;;;2212518;59;1298;-77
2023/11/29 14:11:45;;;;;;;;;;;;;;;;;;2200614;67;1410;-77
2023/11/29 14:14:18;;;;;;;;;;;;;;;;;;2214399;59;1185;-78
2023/11/29 14:16:48;;;;;;;;;;;;;;;;;;2207114;66;1022;-78
2023/11/29 14:19:19;;;;;;;;;;;;;;;;;;2214001;67;1905;-81
2023/11/29 14:21:49;;;;;;;;;;;;;;;;;;2214418;66;1379;-77
2023/11/29 14:24:23;;;;;;;;;;;;;;;;;;2215854;59;1102;-77
2023/11/29 14:27:00;;;;;;;;;;;;;;;;;;2214928;67;1172;-77
2023/11/29 14:29:33;;;;;;;;;;;;;;;;;;2215359;59;2413;-77
2023/11/29 14:32:04;;;;;;;;;;;;;;;;;;2204756;59;1886;-77
2023/11/29 14:34:40;;;;;;;;;;;;;;;;;;2216867;66;1056;-77
2023/11/29 14:37:11;;;;;;;;;;;;;;;;;;2213669;66;1198;-77
2023/11/29 14:39:45;;;;;;;;;;;;;;;;;;2214522;59;1916;-78
2023/11/29 14:42:19;;;;;;;;;;;;;;;;;;2214841;59;1324;-77
2023/11/29 14:44:53;;;;;;;;;;;;;;;;;;2215233;59;1299;-77
2023/11/29 14:47:26;;;;;;;;;;;;;;;;;;2213022;66;1288;-77
2023/11/29 14:50:05;;;;;;;;;;;;;;;;;;2215288;67;1149;-77
2023/11/29 14:52:41;;;;;;;;;;;;;;;;;;2215209;66;1338;-77
2023/11/29 14:55:19;;;;;;;;;;;;;;;;;;2215821;59;1293;-77
2023/11/29 14:57:52;;;;;;;;;;;;;;;;;;2214951;59;1237;-77
2023/11/29 15:00:28;;;;;;;;;;;;;;;;;;2215842;67;1949;-77
2023/11/29 15:02:59;;;;;;;;;;;;;;;;;;2215631;59;2172;-77
2023/11/29 15:05:32;;;;;;;;;;;;;;;;;;2216267;59;1213;-77
2023/11/29 15:08:03;;;;;;;;;;;;;;;;;;2207273;59;1750;-77
2023/11/29 15:10:39;;;;;;;;;;;;;;;;;;2216378;59;1396;-77
2023/11/29 15:13:15;;;;;;;;;;;;;;;;;;2215622;59;1245;-77
2023/11/29 15:15:45;;;;;;;;;;;;;;;;;;2216044;66;1129;-77
2023/11/29 15:18:19;;;;;;;;;;;;;;;;;;2202536;66;1316;-77
2023/11/29 15:20:55;;;;;;;;;;;;;;;;;;2214296;66;1942;-77
2023/11/29 15:23:29;;;;;;;;;;;;;;;;;;2215995;66;1254;-77
2023/11/29 15:26:02;;;;;;;;;;;;;;;;;;2216415;66;973;-77
2023/11/29 15:28:36;;;;;;;;;;;;;;;;;;2212243;67;1193;-77
2023/11/29 15:31:06;;;;;;;;;;;;;;;;;;2214038;59;2586;-77
2023/11/29 15:33:37;;;;;;;;;;;;;;;;;;2215490;59;1555;-77
2023/11/29 15:36:19;;;;;;;;;;;;;;;;;;2215035;66;1008;-77
2023/11/29 15:38:52;;;;;;;;;;;;;;;;;;2215242;59;1093;-77
2023/11/29 15:41:33;;;;;;;;;;;;;;;;;;2216043;66;957;-77
2023/11/29 15:44:15;;;;;;;;;;;;;;;;;;2215188;59;1373;-77
2023/11/29 15:46:45;;;;;;;;;;;;;;;;;;2214841;59;1059;-77
2023/11/29 15:49:16;;;;;;;;;;;;;;;;;;2215157;66;1300;-77
2023/11/29 15:51:49;;;;;;;;;;;;;;;;;;2216879;66;1271;-77
2023/11/29 15:54:22;;;;;;;;;;;;;;;;;;2213432;59;1153;-77
2023/11/29 15:56:58;;;;;;;;;;;;;;;;;;2217127;59;1479;-76
2023/11/29 15:59:29;;;;;;;;;;;;;;;;;;2214433;59;1900;-77
2023/11/29 16:02:02;;;;;;;;;;;;;;;;;;2214492;59;2283;-77
2023/11/29 16:04:33;;;;;;;;;;;;;;;;;;2216289;66;1088;-77
2023/11/29 16:07:04;;;;;;;;;;;;;;;;;;2215221;66;1133;-77
2023/11/29 16:09:34;;;;;;;;;;;;;;;;;;2214573;59;1217;-77
2023/11/29 16:12:05;;;;;;;;;;;;;;;;;;2214893;66;1330;-77
2023/11/29 16:14:35;;;;;;;;;;;;;;;;;;2216102;59;1287;-77
2023/11/29 16:17:06;;;;;;;;;;;;;;;;;;2215147;66;1967;-77
2023/11/29 16:19:41;;;;;;;;;;;;;;;;;;2215387;67;1929;-77
2023/11/29 16:22:14;;;;;;;;;;;;;;;;;;2217744;66;1145;-76
2023/11/29 16:24:47;;;;;;;;;;;;;;;;;;2216483;59;1043;-77
2023/11/29 16:27:21;;;;;;;;;;;;;;;;;;2215482;66;1315;-77
2023/11/29 16:29:54;;;;;;;;;;;;;;;;;;2215557;59;2635;-77
2023/11/29 16:32:27;;;;;;;;;;;;;;;;;;2215964;59;1132;-77
2023/11/29 16:35:03;;;;;;;;;;;;;;;;;;2215331;66;1012;-77
2023/11/29 16:37:33;;;;;;;;;;;;;;;;;;2216530;59;1246;-77
2023/11/29 16:40:07;;;;;;;;;;;;;;;;;;2214641;59;1909;-77
2023/11/29 16:42:37;;;;;;;;;;;;;;;;;;2214968;66;1302;-78
2023/11/29 16:45:10;;;;;;;;;;;;;;;;;;2211894;59;1378;-77
2023/11/29 16:47:41;;;;;;;;;;;;;;;;;;2216344;59;1292;-77
2023/11/29 16:50:22;;;;;;;;;;;;;;;;;;2217321;66;1566;-78
2023/11/29 16:52:53;;;;;;;;;;;;;;;;;;2217048;66;1079;-76
2023/11/29 16:55:29;;;;;;;;;;;;;;;;;;2215640;66;1031;-78
2023/11/29 16:58:02;;;;;;;;;;;;;;;;;;2214748;59;1186;-77
2023/11/29 17:00:43;;;;;;;;;;;;;;;;;;2213937;59;1987;-77
2023/11/29 17:03:16;;;;;;;;;;;;;;;;;;2214963;59;2369;-77
2023/11/29 17:05:47;;;;;;;;;;;;;;;;;;2215642;59;1232;-77
2023/11/29 17:08:25;;;;;;;;;;;;;;;;;;2214491;59;1387;-77
2023/11/29 17:11:01;;;;;;;;;;;;;;;;;;2215002;66;1019;-78
2023/11/29 17:13:38;;;;;;;;;;;;;;;;;;2215339;66;1252;-77
2023/11/29 17:16:08;;;;;;;;;;;;;;;;;;2214786;66;1087;-77
2023/11/29 17:18:39;;;;;;;;;;;;;;;;;;2214375;59;1137;-77
2023/11/29 17:21:12;;;;;;;;;;;;;;;;;;2214655;59;1930;-77
2023/11/29 17:23:48;;;;;;;;;;;;;;;;;;2215637;66;996;-77
2023/11/29 17:26:24;;;;;;;;;;;;;;;;;;2213468;66;1019;-77
2023/11/29 17:28:57;;;;;;;;;;;;;;;;;;2213869;59;2115;-77
2023/11/29 17:31:28;;;;;;;;;;;;;;;;;;2214993;59;1429;-77
2023/11/29 17:34:01;;;;;;;;;;;;;;;;;;2215853;59;1441;-77
2023/11/29 17:36:43;;;;;;;;;;;;;;;;;;2214929;66;1202;-77
2023/11/29 17:39:16;;;;;;;;;;;;;;;;;;2212749;59;1922;-76
2023/11/29 17:41:53;;;;;;;;;;;;;;;;;;2215558;67;1451;-76
2023/11/29 17:44:24;;;;;;;;;;;;;;;;;;2213759;59;1337;-77
2023/11/29 17:46:59;;;;;;;;;;;;;;;;;;2215657;59;1252;-77